CheckWX is a tool to help pilots better visualize weather data.  It is not intended as a substitute for an official pre-flight weather briefing.

17:27:26 UTC

KRNH TAF
New Richmond Regional Airport
New Richmond, Wisconsin, USA
KRNH 241646Z 2417/2512 01007KT 4SM -SN OVC007 FM241900 36005KT 2SM -SN BR OVC007 FM250000 34005KT P6SM OVC007

Jan-24@
17:00 UTC

Jan-24 @ 17:00 UTC

Jan-24@
19:00 UTC

Jan-24 @ 19:00 UTC

KRNH 241646Z 2417/2512 01007KT 4SM -SN OVC007
Wind
  • 010° at 7 KTS
Conditions
Light Snow
Cloud Levels
  • Overcast at 700' AGL

Jan-24@
19:00 UTC

Jan-24 @ 19:00 UTC

Jan-25@
00:00 UTC

Jan-25 @ 00:00 UTC

FM241900 36005KT 2SM -SN BR OVC007

From

From Standard forecast or significant change

Wind
  • 360° at 5 KTS
Conditions
Light Snow, Mist
Cloud Levels
  • Overcast at 700' AGL

Jan-25@
00:00 UTC

Jan-25 @ 00:00 UTC

Jan-25@
12:00 UTC

Jan-25 @ 12:00 UTC

FM250000 34005KT P6SM OVC007

From

From Standard forecast or significant change

Wind
  • 340° at 5 KTS
Cloud Levels
  • Overcast at 700' AGL